sensor_id;sensor_type;location;lat;lon;timestamp;temperature;humidity
14142;DHT22;7151;52.246;4.820;2022-10-31T00:02:00;17.80;80.50
14142;DHT22;7151;52.246;4.820;2022-10-31T00:04:25;17.70;80.50
14142;DHT22;7151;52.246;4.820;2022-10-31T00:06:51;17.70;80.60
14142;DHT22;7151;52.246;4.820;2022-10-31T00:09:16;17.70;80.50
14142;DHT22;7151;52.246;4.820;2022-10-31T00:11:42;17.70;80.50
14142;DHT22;7151;52.246;4.820;2022-10-31T00:14:07;17.70;80.60
14142;DHT22;7151;52.246;4.820;2022-10-31T00:16:33;17.70;80.60
14142;DHT22;7151;52.246;4.820;2022-10-31T00:19:01;17.70;80.60
14142;DHT22;7151;52.246;4.820;2022-10-31T00:21:28;17.70;80.60
14142;DHT22;7151;52.246;4.820;2022-10-31T00:23:54;17.70;80.70
14142;DHT22;7151;52.246;4.820;2022-10-31T00:26:20;17.70;80.80
14142;DHT22;7151;52.246;4.820;2022-10-31T00:28:45;17.70;80.90
14142;DHT22;7151;52.246;4.820;2022-10-31T00:31:12;17.60;80.80
14142;DHT22;7151;52.246;4.820;2022-10-31T00:33:39;17.60;80.80
14142;DHT22;7151;52.246;4.820;2022-10-31T00:36:06;17.60;80.90
14142;DHT22;7151;52.246;4.820;2022-10-31T00:38:32;17.60;80.90
14142;DHT22;7151;52.246;4.820;2022-10-31T00:40:58;17.70;81.00
14142;DHT22;7151;52.246;4.820;2022-10-31T00:43:23;17.60;80.90
14142;DHT22;7151;52.246;4.820;2022-10-31T00:45:49;17.60;81.00
14142;DHT22;7151;52.246;4.820;2022-10-31T00:48:14;17.60;81.00
14142;DHT22;7151;52.246;4.820;2022-10-31T00:50:40;17.60;80.90
14142;DHT22;7151;52.246;4.820;2022-10-31T00:53:06;17.60;80.90
14142;DHT22;7151;52.246;4.820;2022-10-31T00:55:32;17.60;80.80
14142;DHT22;7151;52.246;4.820;2022-10-31T00:57:57;17.60;80.90
14142;DHT22;7151;52.246;4.820;2022-10-31T01:00:23;17.50;80.90
14142;DHT22;7151;52.246;4.820;2022-10-31T01:02:48;17.50;80.90
14142;DHT22;7151;52.246;4.820;2022-10-31T01:05:14;17.50;81.10
14142;DHT22;7151;52.246;4.820;2022-10-31T01:07:41;17.50;81.10
14142;DHT22;7151;52.246;4.820;2022-10-31T01:10:07;17.50;81.10
14142;DHT22;7151;52.246;4.820;2022-10-31T01:12:37;17.50;81.20
14142;DHT22;7151;52.246;4.820;2022-10-31T01:15:04;17.50;81.30
14142;DHT22;7151;52.246;4.820;2022-10-31T01:17:29;17.50;81.40
14142;DHT22;7151;52.246;4.820;2022-10-31T01:19:55;17.50;81.40
14142;DHT22;7151;52.246;4.820;2022-10-31T01:22:20;17.50;81.40
14142;DHT22;7151;52.246;4.820;2022-10-31T01:24:46;17.40;81.40
14142;DHT22;7151;52.246;4.820;2022-10-31T01:27:11;17.40;81.40
14142;DHT22;7151;52.246;4.820;2022-10-31T01:29:37;17.40;81.50
14142;DHT22;7151;52.246;4.820;2022-10-31T01:32:02;17.40;81.40
14142;DHT22;7151;52.246;4.820;2022-10-31T01:34:28;17.40;81.50
14142;DHT22;7151;52.246;4.820;2022-10-31T01:36:54;17.40;81.40
14142;DHT22;7151;52.246;4.820;2022-10-31T01:39:19;17.40;81.40
14142;DHT22;7151;52.246;4.820;2022-10-31T01:41:47;17.40;81.50
14142;DHT22;7151;52.246;4.820;2022-10-31T01:49:24;17.30;81.40
14142;DHT22;7151;52.246;4.820;2022-10-31T01:51:54;17.30;81.40
14142;DHT22;7151;52.246;4.820;2022-10-31T01:54:24;17.30;81.40
14142;DHT22;7151;52.246;4.820;2022-10-31T01:56:53;17.30;81.40
14142;DHT22;7151;52.246;4.820;2022-10-31T01:59:20;17.20;81.40
14142;DHT22;7151;52.246;4.820;2022-10-31T02:01:47;17.20;81.30
14142;DHT22;7151;52.246;4.820;2022-10-31T02:04:15;17.20;81.40
14142;DHT22;7151;52.246;4.820;2022-10-31T02:06:58;17.20;81.30
14142;DHT22;7151;52.246;4.820;2022-10-31T02:09:25;17.10;81.20
14142;DHT22;7151;52.246;4.820;2022-10-31T02:11:52;17.10;81.20
14142;DHT22;7151;52.246;4.820;2022-10-31T02:14:22;17.10;81.20
14142;DHT22;7151;52.246;4.820;2022-10-31T02:16:49;17.10;81.10
14142;DHT22;7151;52.246;4.820;2022-10-31T02:19:21;17.10;81.10
14142;DHT22;7151;52.246;4.820;2022-10-31T02:21:56;17.10;81.00
14142;DHT22;7151;52.246;4.820;2022-10-31T02:27:41;16.90;80.70
14142;DHT22;7151;52.246;4.820;2022-10-31T02:30:21;16.90;80.60
14142;DHT22;7151;52.246;4.820;2022-10-31T02:35:40;16.90;80.60
14142;DHT22;7151;52.246;4.820;2022-10-31T02:38:42;16.80;80.60
14142;DHT22;7151;52.246;4.820;2022-10-31T02:41:29;16.80;80.60
14142;DHT22;7151;52.246;4.820;2022-10-31T02:46:59;16.70;80.40
14142;DHT22;7151;52.246;4.820;2022-10-31T02:49:31;16.70;80.40
14142;DHT22;7151;52.246;4.820;2022-10-31T02:51:59;16.70;80.30
14142;DHT22;7151;52.246;4.820;2022-10-31T02:54:26;16.60;80.30
14142;DHT22;7151;52.246;4.820;2022-10-31T02:57:00;16.60;80.30
14142;DHT22;7151;52.246;4.820;2022-10-31T02:59:28;16.60;80.30
14142;DHT22;7151;52.246;4.820;2022-10-31T03:02:05;16.50;80.30
14142;DHT22;7151;52.246;4.820;2022-10-31T03:05:03;16.50;80.30
14142;DHT22;7151;52.246;4.820;2022-10-31T03:07:59;16.50;80.30
14142;DHT22;7151;52.246;4.820;2022-10-31T03:15:55;16.50;80.50
14142;DHT22;7151;52.246;4.820;2022-10-31T03:18:26;16.50;80.60
14142;DHT22;7151;52.246;4.820;2022-10-31T03:21:04;16.40;80.70
14142;DHT22;7151;52.246;4.820;2022-10-31T03:23:32;16.40;80.90
14142;DHT22;7151;52.246;4.820;2022-10-31T03:26:00;16.40;81.00
14142;DHT22;7151;52.246;4.820;2022-10-31T03:28:30;16.40;81.30
14142;DHT22;7151;52.246;4.820;2022-10-31T03:31:00;16.40;81.50
14142;DHT22;7151;52.246;4.820;2022-10-31T03:33:29;16.40;81.60
14142;DHT22;7151;52.246;4.820;2022-10-31T03:35:57;16.40;81.70
14142;DHT22;7151;52.246;4.820;2022-10-31T03:38:25;16.40;81.80
14142;DHT22;7151;52.246;4.820;2022-10-31T03:40:51;16.40;81.80
14142;DHT22;7151;52.246;4.820;2022-10-31T03:43:30;16.40;81.90
14142;DHT22;7151;52.246;4.820;2022-10-31T03:45:58;16.50;82.00
14142;DHT22;7151;52.246;4.820;2022-10-31T03:48:24;16.40;81.90
14142;DHT22;7151;52.246;4.820;2022-10-31T03:51:15;16.40;81.90
14142;DHT22;7151;52.246;4.820;2022-10-31T03:53:55;16.40;81.90
14142;DHT22;7151;52.246;4.820;2022-10-31T03:59:04;16.40;81.90
14142;DHT22;7151;52.246;4.820;2022-10-31T04:01:34;16.40;82.00
14142;DHT22;7151;52.246;4.820;2022-10-31T04:04:00;16.40;82.00
14142;DHT22;7151;52.246;4.820;2022-10-31T04:06:27;16.40;82.00
14142;DHT22;7151;52.246;4.820;2022-10-31T04:09:00;16.40;82.00
14142;DHT22;7151;52.246;4.820;2022-10-31T04:11:31;16.40;81.90
14142;DHT22;7151;52.246;4.820;2022-10-31T04:13:59;16.30;81.90
14142;DHT22;7151;52.246;4.820;2022-10-31T04:16:26;16.30;81.90
14142;DHT22;7151;52.246;4.820;2022-10-31T04:18:52;16.30;81.90
14142;DHT22;7151;52.246;4.820;2022-10-31T04:21:18;16.30;82.00
14142;DHT22;7151;52.246;4.820;2022-10-31T04:23:43;16.30;82.10
14142;DHT22;7151;52.246;4.820;2022-10-31T04:26:12;16.30;82.10
14142;DHT22;7151;52.246;4.820;2022-10-31T04:28:38;16.30;82.20
14142;DHT22;7151;52.246;4.820;2022-10-31T04:31:04;16.30;82.20
14142;DHT22;7151;52.246;4.820;2022-10-31T04:33:29;16.30;82.30
14142;DHT22;7151;52.246;4.820;2022-10-31T04:35:55;16.30;82.40
14142;DHT22;7151;52.246;4.820;2022-10-31T04:38:20;16.30;83.10
14142;DHT22;7151;52.246;4.820;2022-10-31T04:40:46;16.20;82.30
14142;DHT22;7151;52.246;4.820;2022-10-31T04:43:12;16.20;82.40
14142;DHT22;7151;52.246;4.820;2022-10-31T04:45:37;16.20;82.50
14142;DHT22;7151;52.246;4.820;2022-10-31T04:48:04;16.20;82.50
14142;DHT22;7151;52.246;4.820;2022-10-31T04:50:29;16.20;82.50
14142;DHT22;7151;52.246;4.820;2022-10-31T04:52:55;16.20;82.60
14142;DHT22;7151;52.246;4.820;2022-10-31T04:55:21;16.20;82.60
14142;DHT22;7151;52.246;4.820;2022-10-31T04:57:48;16.20;82.70
14142;DHT22;7151;52.246;4.820;2022-10-31T05:00:16;16.10;82.70
14142;DHT22;7151;52.246;4.820;2022-10-31T05:02:46;16.20;82.80
14142;DHT22;7151;52.246;4.820;2022-10-31T05:05:14;16.10;82.80
14142;DHT22;7151;52.246;4.820;2022-10-31T05:07:41;16.10;82.80
14142;DHT22;7151;52.246;4.820;2022-10-31T05:10:08;16.10;82.80
14142;DHT22;7151;52.246;4.820;2022-10-31T05:12:35;16.10;82.90
14142;DHT22;7151;52.246;4.820;2022-10-31T05:15:00;16.10;82.90
14142;DHT22;7151;52.246;4.820;2022-10-31T05:17:26;16.10;82.90
14142;DHT22;7151;52.246;4.820;2022-10-31T05:19:51;16.10;82.90
14142;DHT22;7151;52.246;4.820;2022-10-31T05:22:17;16.20;83.10
14142;DHT22;7151;52.246;4.820;2022-10-31T05:24:42;16.00;82.90
14142;DHT22;7151;52.246;4.820;2022-10-31T05:27:08;16.10;83.10
14142;DHT22;7151;52.246;4.820;2022-10-31T05:29:33;16.00;83.10
14142;DHT22;7151;52.246;4.820;2022-10-31T05:31:59;16.00;83.10
14142;DHT22;7151;52.246;4.820;2022-10-31T05:34:25;16.00;83.10
14142;DHT22;7151;52.246;4.820;2022-10-31T05:36:50;16.00;83.10
14142;DHT22;7151;52.246;4.820;2022-10-31T05:39:16;16.00;83.20
14142;DHT22;7151;52.246;4.820;2022-10-31T05:41:41;16.00;83.20
14142;DHT22;7151;52.246;4.820;2022-10-31T05:44:07;16.00;83.30
14142;DHT22;7151;52.246;4.820;2022-10-31T05:46:32;16.00;83.40
14142;DHT22;7151;52.246;4.820;2022-10-31T05:48:58;16.00;84.10
14142;DHT22;7151;52.246;4.820;2022-10-31T05:51:23;16.00;83.40
14142;DHT22;7151;52.246;4.820;2022-10-31T05:53:49;16.00;83.40
14142;DHT22;7151;52.246;4.820;2022-10-31T05:56:15;16.00;83.40
14142;DHT22;7151;52.246;4.820;2022-10-31T05:58:40;16.00;83.50
14142;DHT22;7151;52.246;4.820;2022-10-31T06:01:06;16.00;83.50
14142;DHT22;7151;52.246;4.820;2022-10-31T06:03:31;16.00;83.50
14142;DHT22;7151;52.246;4.820;2022-10-31T06:05:57;16.00;83.50
14142;DHT22;7151;52.246;4.820;2022-10-31T06:08:22;16.00;83.40
14142;DHT22;7151;52.246;4.820;2022-10-31T06:10:48;15.90;83.20
14142;DHT22;7151;52.246;4.820;2022-10-31T06:13:13;15.90;83.10
14142;DHT22;7151;52.246;4.820;2022-10-31T06:15:40;15.90;83.00
14142;DHT22;7151;52.246;4.820;2022-10-31T06:18:06;15.90;82.90
14142;DHT22;7151;52.246;4.820;2022-10-31T06:20:32;15.80;82.80
14142;DHT22;7151;52.246;4.820;2022-10-31T06:22:58;15.80;82.70
14142;DHT22;7151;52.246;4.820;2022-10-31T06:25:24;15.80;82.70
14142;DHT22;7151;52.246;4.820;2022-10-31T06:27:50;15.80;82.80
14142;DHT22;7151;52.246;4.820;2022-10-31T06:30:16;15.80;82.90
14142;DHT22;7151;52.246;4.820;2022-10-31T06:32:41;15.80;83.10
14142;DHT22;7151;52.246;4.820;2022-10-31T06:35:07;15.70;83.20
14142;DHT22;7151;52.246;4.820;2022-10-31T06:37:32;15.80;83.40
14142;DHT22;7151;52.246;4.820;2022-10-31T06:39:58;15.70;83.50
14142;DHT22;7151;52.246;4.820;2022-10-31T06:42:23;15.70;83.60
14142;DHT22;7151;52.246;4.820;2022-10-31T06:44:49;15.70;83.80
14142;DHT22;7151;52.246;4.820;2022-10-31T06:47:15;15.70;83.80
14142;DHT22;7151;52.246;4.820;2022-10-31T06:49:40;15.70;84.00
14142;DHT22;7151;52.246;4.820;2022-10-31T06:52:06;15.70;84.10
14142;DHT22;7151;52.246;4.820;2022-10-31T06:54:31;15.70;84.10
14142;DHT22;7151;52.246;4.820;2022-10-31T06:56:57;15.70;84.30
14142;DHT22;7151;52.246;4.820;2022-10-31T06:59:22;15.70;84.40
14142;DHT22;7151;52.246;4.820;2022-10-31T07:01:49;15.70;84.50
14142;DHT22;7151;52.246;4.820;2022-10-31T07:04:15;15.70;84.60
14142;DHT22;7151;52.246;4.820;2022-10-31T07:06:40;15.70;84.70
14142;DHT22;7151;52.246;4.820;2022-10-31T07:09:06;15.70;84.70
14142;DHT22;7151;52.246;4.820;2022-10-31T07:11:31;15.70;84.90
14142;DHT22;7151;52.246;4.820;2022-10-31T07:13:57;15.70;84.90
14142;DHT22;7151;52.246;4.820;2022-10-31T07:16:23;15.70;85.00
14142;DHT22;7151;52.246;4.820;2022-10-31T07:18:48;15.70;85.00
14142;DHT22;7151;52.246;4.820;2022-10-31T07:21:17;15.70;85.00
14142;DHT22;7151;52.246;4.820;2022-10-31T07:23:42;15.70;85.10
14142;DHT22;7151;52.246;4.820;2022-10-31T07:26:09;15.70;85.20
14142;DHT22;7151;52.246;4.820;2022-10-31T07:28:35;15.70;85.30
14142;DHT22;7151;52.246;4.820;2022-10-31T07:31:01;15.70;85.30
14142;DHT22;7151;52.246;4.820;2022-10-31T07:33:26;15.60;85.30
14142;DHT22;7151;52.246;4.820;2022-10-31T07:35:52;15.70;85.50
14142;DHT22;7151;52.246;4.820;2022-10-31T07:38:18;15.70;85.60
14142;DHT22;7151;52.246;4.820;2022-10-31T07:40:44;15.70;85.80
14142;DHT22;7151;52.246;4.820;2022-10-31T07:43:14;15.70;85.90
14142;DHT22;7151;52.246;4.820;2022-10-31T07:45:40;15.70;86.00
14142;DHT22;7151;52.246;4.820;2022-10-31T07:48:05;15.70;86.10
14142;DHT22;7151;52.246;4.820;2022-10-31T07:50:32;15.70;86.30
14142;DHT22;7151;52.246;4.820;2022-10-31T07:53:09;15.70;86.40
14142;DHT22;7151;52.246;4.820;2022-10-31T07:55:36;15.70;86.50
14142;DHT22;7151;52.246;4.820;2022-10-31T07:58:04;15.70;86.70
14142;DHT22;7151;52.246;4.820;2022-10-31T08:00:31;15.70;86.80
14142;DHT22;7151;52.246;4.820;2022-10-31T08:03:12;15.70;86.90
14142;DHT22;7151;52.246;4.820;2022-10-31T08:05:38;15.80;87.20
14142;DHT22;7151;52.246;4.820;2022-10-31T08:08:05;15.80;87.20
14142;DHT22;7151;52.246;4.820;2022-10-31T08:10:31;15.70;87.30
14142;DHT22;7151;52.246;4.820;2022-10-31T08:12:58;15.80;88.20
14142;DHT22;7151;52.246;4.820;2022-10-31T08:15:24;15.80;87.60
14142;DHT22;7151;52.246;4.820;2022-10-31T08:17:50;15.90;87.90
14142;DHT22;7151;52.246;4.820;2022-10-31T08:20:16;15.90;88.20
14142;DHT22;7151;52.246;4.820;2022-10-31T08:22:41;16.00;88.40
14142;DHT22;7151;52.246;4.820;2022-10-31T08:25:08;16.00;88.20
14142;DHT22;7151;52.246;4.820;2022-10-31T08:27:33;16.10;88.10
14142;DHT22;7151;52.246;4.820;2022-10-31T08:29:59;16.10;87.90
14142;DHT22;7151;52.246;4.820;2022-10-31T08:32:24;16.10;87.80
14142;DHT22;7151;52.246;4.820;2022-10-31T08:34:50;16.10;87.80
14142;DHT22;7151;52.246;4.820;2022-10-31T08:37:16;16.10;87.80
14142;DHT22;7151;52.246;4.820;2022-10-31T08:39:45;16.10;87.90
14142;DHT22;7151;52.246;4.820;2022-10-31T08:42:11;16.10;87.90
14142;DHT22;7151;52.246;4.820;2022-10-31T08:44:37;16.10;88.00
14142;DHT22;7151;52.246;4.820;2022-10-31T08:47:03;16.10;88.10
14142;DHT22;7151;52.246;4.820;2022-10-31T08:49:28;16.10;88.20
14142;DHT22;7151;52.246;4.820;2022-10-31T08:51:54;16.10;88.50
14142;DHT22;7151;52.246;4.820;2022-10-31T08:54:19;16.20;89.10
14142;DHT22;7151;52.246;4.820;2022-10-31T08:56:46;16.20;89.20
14142;DHT22;7151;52.246;4.820;2022-10-31T08:59:11;16.30;89.00
14142;DHT22;7151;52.246;4.820;2022-10-31T09:01:37;16.30;88.90
14142;DHT22;7151;52.246;4.820;2022-10-31T09:04:02;16.40;88.80
14142;DHT22;7151;52.246;4.820;2022-10-31T09:06:28;16.40;88.80
14142;DHT22;7151;52.246;4.820;2022-10-31T09:08:53;16.40;88.90
14142;DHT22;7151;52.246;4.820;2022-10-31T09:11:19;16.40;88.90
14142;DHT22;7151;52.246;4.820;2022-10-31T09:13:44;16.40;88.90
14142;DHT22;7151;52.246;4.820;2022-10-31T09:16:10;16.40;89.00
14142;DHT22;7151;52.246;4.820;2022-10-31T09:18:36;16.40;89.20
14142;DHT22;7151;52.246;4.820;2022-10-31T09:21:01;16.40;89.30
14142;DHT22;7151;52.246;4.820;2022-10-31T09:23:27;16.50;89.80
14142;DHT22;7151;52.246;4.820;2022-10-31T09:25:54;16.50;90.00
14142;DHT22;7151;52.246;4.820;2022-10-31T09:28:22;16.60;90.10
14142;DHT22;7151;52.246;4.820;2022-10-31T09:30:50;16.70;90.10
14142;DHT22;7151;52.246;4.820;2022-10-31T09:33:16;16.80;90.10
14142;DHT22;7151;52.246;4.820;2022-10-31T09:35:42;16.90;90.10
14142;DHT22;7151;52.246;4.820;2022-10-31T09:38:12;17.00;90.00
14142;DHT22;7151;52.246;4.820;2022-10-31T09:43:33;17.10;89.80
14142;DHT22;7151;52.246;4.820;2022-10-31T09:46:23;17.10;90.10
14142;DHT22;7151;52.246;4.820;2022-10-31T09:51:39;17.10;89.70
14142;DHT22;7151;52.246;4.820;2022-10-31T09:55:02;17.10;89.70
14142;DHT22;7151;52.246;4.820;2022-10-31T09:57:13;17.20;90.00
14142;DHT22;7151;52.246;4.820;2022-10-31T09:59:40;17.20;90.00
14142;DHT22;7151;52.246;4.820;2022-10-31T10:02:15;17.20;90.00
14142;DHT22;7151;52.246;4.820;2022-10-31T10:04:49;17.20;90.10
14142;DHT22;7151;52.246;4.820;2022-10-31T10:07:23;17.20;90.10
14142;DHT22;7151;52.246;4.820;2022-10-31T10:09:52;17.20;90.20
14142;DHT22;7151;52.246;4.820;2022-10-31T10:12:36;17.30;90.20
14142;DHT22;7151;52.246;4.820;2022-10-31T10:26:41;17.40;90.30
14142;DHT22;7151;52.246;4.820;2022-10-31T10:31:58;17.40;90.40
14142;DHT22;7151;52.246;4.820;2022-10-31T10:34:29;17.50;90.30
14142;DHT22;7151;52.246;4.820;2022-10-31T10:37:02;17.50;90.30
14142;DHT22;7151;52.246;4.820;2022-10-31T10:39:41;17.60;90.20
14142;DHT22;7151;52.246;4.820;2022-10-31T10:42:14;17.70;90.20
14142;DHT22;7151;52.246;4.820;2022-10-31T10:45:18;17.70;90.20
14142;DHT22;7151;52.246;4.820;2022-10-31T10:49:00;17.80;90.20
14142;DHT22;7151;52.246;4.820;2022-10-31T10:51:06;17.90;90.20
14142;DHT22;7151;52.246;4.820;2022-10-31T10:53:54;17.90;90.10
14142;DHT22;7151;52.246;4.820;2022-10-31T10:59:17;18.00;90.30
14142;DHT22;7151;52.246;4.820;2022-10-31T11:01:43;18.00;90.30
14142;DHT22;7151;52.246;4.820;2022-10-31T11:04:31;18.00;90.40
14142;DHT22;7151;52.246;4.820;2022-10-31T11:07:06;18.10;90.50
14142;DHT22;7151;52.246;4.820;2022-10-31T11:09:32;18.10;90.60
14142;DHT22;7151;52.246;4.820;2022-10-31T11:11:58;18.20;90.60
14142;DHT22;7151;52.246;4.820;2022-10-31T11:14:26;18.20;90.60
14142;DHT22;7151;52.246;4.820;2022-10-31T11:17:08;18.30;90.50
14142;DHT22;7151;52.246;4.820;2022-10-31T11:19:34;18.30;90.50
14142;DHT22;7151;52.246;4.820;2022-10-31T11:22:12;18.30;90.40
14142;DHT22;7151;52.246;4.820;2022-10-31T11:24:41;18.30;90.30
14142;DHT22;7151;52.246;4.820;2022-10-31T11:27:20;18.40;90.30
14142;DHT22;7151;52.246;4.820;2022-10-31T11:29:46;18.40;90.10
14142;DHT22;7151;52.246;4.820;2022-10-31T11:32:30;18.40;90.00
14142;DHT22;7151;52.246;4.820;2022-10-31T11:35:00;18.40;89.70
14142;DHT22;7151;52.246;4.820;2022-10-31T11:37:29;18.40;89.60
14142;DHT22;7151;52.246;4.820;2022-10-31T11:40:01;18.40;89.50
14142;DHT22;7151;52.246;4.820;2022-10-31T11:42:34;18.50;89.60
14142;DHT22;7151;52.246;4.820;2022-10-31T11:45:05;18.50;89.60
14142;DHT22;7151;52.246;4.820;2022-10-31T11:47:40;18.60;89.60
14142;DHT22;7151;52.246;4.820;2022-10-31T11:50:19;18.70;89.60
14142;DHT22;7151;52.246;4.820;2022-10-31T11:52:45;18.70;89.30
14142;DHT22;7151;52.246;4.820;2022-10-31T11:55:32;18.80;89.10
14142;DHT22;7151;52.246;4.820;2022-10-31T11:57:58;18.80;88.80
14142;DHT22;7151;52.246;4.820;2022-10-31T12:00:29;18.90;88.70
14142;DHT22;7151;52.246;4.820;2022-10-31T12:06:23;19.00;88.70
14142;DHT22;7151;52.246;4.820;2022-10-31T12:08:51;19.00;88.70
14142;DHT22;7151;52.246;4.820;2022-10-31T12:11:36;19.00;88.60
14142;DHT22;7151;52.246;4.820;2022-10-31T12:16:53;19.20;88.50
14142;DHT22;7151;52.246;4.820;2022-10-31T12:27:34;19.30;88.60
14142;DHT22;7151;52.246;4.820;2022-10-31T12:30:18;19.30;88.70
14142;DHT22;7151;52.246;4.820;2022-10-31T12:41:27;19.50;88.70
14142;DHT22;7151;52.246;4.820;2022-10-31T12:44:06;19.50;88.90
14142;DHT22;7151;52.246;4.820;2022-10-31T12:46:50;19.60;89.00
14142;DHT22;7151;52.246;4.820;2022-10-31T12:52:37;19.70;89.00
14142;DHT22;7151;52.246;4.820;2022-10-31T12:55:22;19.80;89.00
14142;DHT22;7151;52.246;4.820;2022-10-31T12:57:56;19.80;88.70
14142;DHT22;7151;52.246;4.820;2022-10-31T13:00:24;19.80;88.30
14142;DHT22;7151;52.246;4.820;2022-10-31T13:02:53;19.90;88.00
14142;DHT22;7151;52.246;4.820;2022-10-31T13:05:43;19.90;87.80
14142;DHT22;7151;52.246;4.820;2022-10-31T13:08:17;19.80;87.60
14142;DHT22;7151;52.246;4.820;2022-10-31T13:10:50;19.80;87.60
14142;DHT22;7151;52.246;4.820;2022-10-31T13:15:51;19.80;87.60
14142;DHT22;7151;52.246;4.820;2022-10-31T13:18:30;19.70;87.60
14142;DHT22;7151;52.246;4.820;2022-10-31T13:20:59;19.70;87.60
14142;DHT22;7151;52.246;4.820;2022-10-31T13:23:35;19.70;87.80
14142;DHT22;7151;52.246;4.820;2022-10-31T13:26:10;19.70;87.90
14142;DHT22;7151;52.246;4.820;2022-10-31T13:28:54;19.60;87.90
14142;DHT22;7151;52.246;4.820;2022-10-31T13:31:22;19.60;88.00
14142;DHT22;7151;52.246;4.820;2022-10-31T13:33:58;19.60;88.00
14142;DHT22;7151;52.246;4.820;2022-10-31T13:36:35;19.60;88.10
14142;DHT22;7151;52.246;4.820;2022-10-31T13:44:26;19.50;88.30
14142;DHT22;7151;52.246;4.820;2022-10-31T13:46:57;19.50;88.50
14142;DHT22;7151;52.246;4.820;2022-10-31T13:54:40;19.50;88.60
14142;DHT22;7151;52.246;4.820;2022-10-31T13:57:17;19.50;88.60
14142;DHT22;7151;52.246;4.820;2022-10-31T13:59:49;19.50;88.70
14142;DHT22;7151;52.246;4.820;2022-10-31T14:02:18;19.50;88.80
14142;DHT22;7151;52.246;4.820;2022-10-31T14:04:51;19.50;88.90
14142;DHT22;7151;52.246;4.820;2022-10-31T14:07:20;19.50;88.90
14142;DHT22;7151;52.246;4.820;2022-10-31T14:09:51;19.50;88.90
14142;DHT22;7151;52.246;4.820;2022-10-31T14:12:45;19.40;88.90
14142;DHT22;7151;52.246;4.820;2022-10-31T14:15:19;19.50;89.00
14142;DHT22;7151;52.246;4.820;2022-10-31T14:17:51;19.40;88.90
14142;DHT22;7151;52.246;4.820;2022-10-31T14:20:39;19.40;88.90
14142;DHT22;7151;52.246;4.820;2022-10-31T14:26:51;19.50;89.00
14142;DHT22;7151;52.246;4.820;2022-10-31T14:31:44;19.50;89.00
14142;DHT22;7151;52.246;4.820;2022-10-31T14:42:53;19.40;89.00
14142;DHT22;7151;52.246;4.820;2022-10-31T14:50:58;19.50;90.00
14142;DHT22;7151;52.246;4.820;2022-10-31T14:53:43;19.50;89.20
14142;DHT22;7151;52.246;4.820;2022-10-31T14:56:11;19.50;89.10
14142;DHT22;7151;52.246;4.820;2022-10-31T14:58:42;19.50;89.10
14142;DHT22;7151;52.246;4.820;2022-10-31T15:01:33;19.50;89.20
14142;DHT22;7151;52.246;4.820;2022-10-31T15:04:27;19.50;89.20
14142;DHT22;7151;52.246;4.820;2022-10-31T15:07:06;19.50;89.20
14142;DHT22;7151;52.246;4.820;2022-10-31T15:09:35;19.50;89.20
14142;DHT22;7151;52.246;4.820;2022-10-31T15:12:22;19.50;89.10
14142;DHT22;7151;52.246;4.820;2022-10-31T15:14:50;19.50;89.00
14142;DHT22;7151;52.246;4.820;2022-10-31T15:17:16;19.40;88.90
14142;DHT22;7151;52.246;4.820;2022-10-31T15:19:42;19.40;88.90
14142;DHT22;7151;52.246;4.820;2022-10-31T15:22:13;19.40;88.80
14142;DHT22;7151;52.246;4.820;2022-10-31T15:24:39;19.40;88.70
14142;DHT22;7151;52.246;4.820;2022-10-31T15:27:05;19.40;89.30
14142;DHT22;7151;52.246;4.820;2022-10-31T15:29:35;19.40;88.60
14142;DHT22;7151;52.246;4.820;2022-10-31T15:32:18;19.40;88.60
14142;DHT22;7151;52.246;4.820;2022-10-31T15:34:45;19.40;88.50
14142;DHT22;7151;52.246;4.820;2022-10-31T15:37:12;19.40;88.40
14142;DHT22;7151;52.246;4.820;2022-10-31T15:39:42;19.40;88.40
14142;DHT22;7151;52.246;4.820;2022-10-31T15:42:35;19.40;88.40
14142;DHT22;7151;52.246;4.820;2022-10-31T15:47:39;19.40;88.40
14142;DHT22;7151;52.246;4.820;2022-10-31T15:50:37;19.30;88.40
14142;DHT22;7151;52.246;4.820;2022-10-31T15:53:06;19.30;88.40
14142;DHT22;7151;52.246;4.820;2022-10-31T15:55:47;19.30;88.40
14142;DHT22;7151;52.246;4.820;2022-10-31T15:58:15;19.30;88.40
14142;DHT22;7151;52.246;4.820;2022-10-31T16:00:41;19.30;88.40
14142;DHT22;7151;52.246;4.820;2022-10-31T16:05:51;19.30;88.50
14142;DHT22;7151;52.246;4.820;2022-10-31T16:11:02;19.30;88.60
14142;DHT22;7151;52.246;4.820;2022-10-31T16:16:21;19.30;88.60
14142;DHT22;7151;52.246;4.820;2022-10-31T16:18:48;19.30;88.50
14142;DHT22;7151;52.246;4.820;2022-10-31T16:21:14;19.20;88.50
14142;DHT22;7151;52.246;4.820;2022-10-31T16:23:45;19.20;88.70
14142;DHT22;7151;52.246;4.820;2022-10-31T16:26:17;19.20;88.70
14142;DHT22;7151;52.246;4.820;2022-10-31T16:28:56;19.20;88.70
14142;DHT22;7151;52.246;4.820;2022-10-31T16:31:38;19.20;88.70
14142;DHT22;7151;52.246;4.820;2022-10-31T16:34:24;19.20;88.80
14142;DHT22;7151;52.246;4.820;2022-10-31T16:36:50;19.20;88.90
14142;DHT22;7151;52.246;4.820;2022-10-31T16:39:16;19.20;88.90
14142;DHT22;7151;52.246;4.820;2022-10-31T16:41:45;19.20;89.00
14142;DHT22;7151;52.246;4.820;2022-10-31T16:46:42;19.20;89.00
14142;DHT22;7151;52.246;4.820;2022-10-31T16:49:11;19.20;89.00
14142;DHT22;7151;52.246;4.820;2022-10-31T16:51:37;19.10;89.00
14142;DHT22;7151;52.246;4.820;2022-10-31T16:54:03;19.20;89.00
14142;DHT22;7151;52.246;4.820;2022-10-31T16:56:30;19.20;89.00
14142;DHT22;7151;52.246;4.820;2022-10-31T16:58:58;19.20;89.00
14142;DHT22;7151;52.246;4.820;2022-10-31T17:01:24;19.10;89.00
14142;DHT22;7151;52.246;4.820;2022-10-31T17:03:50;19.20;89.00
14142;DHT22;7151;52.246;4.820;2022-10-31T17:06:15;19.10;89.00
14142;DHT22;7151;52.246;4.820;2022-10-31T17:08:41;19.10;89.00
14142;DHT22;7151;52.246;4.820;2022-10-31T17:11:18;19.10;89.00
14142;DHT22;7151;52.246;4.820;2022-10-31T17:13:45;19.10;89.10
14142;DHT22;7151;52.246;4.820;2022-10-31T17:16:12;19.10;89.10
14142;DHT22;7151;52.246;4.820;2022-10-31T17:18:38;19.10;89.20
14142;DHT22;7151;52.246;4.820;2022-10-31T17:21:04;19.10;89.20
14142;DHT22;7151;52.246;4.820;2022-10-31T17:23:33;19.10;89.20
14142;DHT22;7151;52.246;4.820;2022-10-31T17:25:59;19.10;89.20
14142;DHT22;7151;52.246;4.820;2022-10-31T17:28:25;19.10;89.40
14142;DHT22;7151;52.246;4.820;2022-10-31T17:30:53;19.10;89.60
14142;DHT22;7151;52.246;4.820;2022-10-31T17:33:19;19.10;89.60
14142;DHT22;7151;52.246;4.820;2022-10-31T17:35:46;19.10;89.40
14142;DHT22;7151;52.246;4.820;2022-10-31T17:38:12;19.20;89.30
14142;DHT22;7151;52.246;4.820;2022-10-31T17:40:39;19.20;89.20
14142;DHT22;7151;52.246;4.820;2022-10-31T17:43:07;19.20;89.20
14142;DHT22;7151;52.246;4.820;2022-10-31T17:45:33;19.20;89.20
14142;DHT22;7151;52.246;4.820;2022-10-31T17:47:58;19.10;89.00
14142;DHT22;7151;52.246;4.820;2022-10-31T17:50:25;19.20;89.10
14142;DHT22;7151;52.246;4.820;2022-10-31T17:52:51;19.10;89.00
14142;DHT22;7151;52.246;4.820;2022-10-31T17:55:18;19.10;89.00
14142;DHT22;7151;52.246;4.820;2022-10-31T17:57:44;19.10;89.00
14142;DHT22;7151;52.246;4.820;2022-10-31T18:00:15;19.10;89.00